Time;durP1;ratioP1;P1;durP2;ratioP2;P2;SDS_P1;SDS_P2;PMS_P1;PMS_P2;Temp;Humidity;BMP_temperature;BMP_pressure;BME280_temperature;BME280_humidity;BME280_pressure;Samples;Min_cycle;Max_cycle;Signal;HPM_P1;HPM_P2
2022/05/12 00:01:32;;;;;;;3.97;1.00;;;10.90;99.90;;;;;;5023763;28;20490;-68
2022/05/12 00:03:57;;;;;;;5.43;0.77;;;10.80;99.90;;;;;;5019533;28;20140;-68
2022/05/12 00:06:23;;;;;;;4.38;0.90;;;10.80;99.90;;;;;;5040578;28;20409;-68
2022/05/12 00:08:49;;;;;;;4.70;1.10;;;10.70;99.90;;;;;;5028859;28;20094;-68
2022/05/12 00:11:15;;;;;;;5.60;0.85;;;10.70;99.90;;;;;;5024492;28;20132;-68
2022/05/12 00:13:40;;;;;;;2.00;0.68;;;10.60;99.90;;;;;;5023013;28;20047;-68
2022/05/12 00:16:06;;;;;;;6.20;0.93;;;10.70;99.90;;;;;;5036030;28;20069;-68
2022/05/12 00:18:32;;;;;;;3.00;0.82;;;10.60;99.90;;;;;;5038601;28;20042;-68
2022/05/12 00:20:58;;;;;;;3.28;0.73;;;10.60;99.90;;;;;;5042823;28;20048;-68
2022/05/12 00:23:27;;;;;;;4.35;0.95;;;10.50;99.90;;;;;;5025075;28;20039;-68
2022/05/12 00:25:54;;;;;;;3.55;0.90;;;10.50;99.90;;;;;;5028458;28;20053;-68
2022/05/12 00:28:23;;;;;;;6.03;1.02;;;10.50;99.90;;;;;;5044109;28;20041;-68
2022/05/12 00:30:51;;;;;;;3.05;0.80;;;10.30;99.90;;;;;;5038639;28;20138;-68
2022/05/12 00:33:19;;;;;;;6.10;1.23;;;10.30;99.90;;;;;;5030555;28;20045;-68
2022/05/12 00:35:46;;;;;;;6.70;0.90;;;10.30;99.90;;;;;;5022800;28;20104;-68
2022/05/12 00:38:12;;;;;;;5.50;0.80;;;10.30;99.90;;;;;;5024868;28;20564;-68
2022/05/12 00:40:39;;;;;;;5.97;1.02;;;10.20;99.90;;;;;;5042671;28;20052;-68
2022/05/12 00:43:08;;;;;;;6.68;1.25;;;10.10;99.90;;;;;;5027173;28;20103;-68
2022/05/12 00:45:37;;;;;;;5.93;1.10;;;10.10;99.90;;;;;;5039954;28;20049;-68
2022/05/12 00:48:04;;;;;;;6.07;1.23;;;10.10;99.90;;;;;;5029595;28;20110;-68
2022/05/12 00:50:39;;;;;;;4.82;1.10;;;10.00;99.90;;;;;;5033498;28;20037;-68
2022/05/12 00:53:08;;;;;;;4.90;1.42;;;9.90;99.90;;;;;;5026487;28;20511;-68
2022/05/12 00:55:38;;;;;;;3.90;0.80;;;9.90;99.90;;;;;;5026755;28;20211;-68
2022/05/12 00:58:08;;;;;;;6.13;0.88;;;9.90;99.90;;;;;;5019605;28;20051;-68
2022/05/12 01:00:35;;;;;;;3.78;0.65;;;9.80;99.90;;;;;;5033786;28;20101;-68
2022/05/12 01:03:04;;;;;;;6.28;1.00;;;9.80;99.90;;;;;;5011508;28;20362;-68
2022/05/12 01:05:30;;;;;;;4.65;1.20;;;9.80;99.90;;;;;;5032726;28;20056;-68
2022/05/12 01:07:57;;;;;;;5.95;1.02;;;9.80;99.90;;;;;;5045937;28;20419;-67
2022/05/12 01:10:25;;;;;;;3.90;0.77;;;9.70;99.90;;;;;;5044827;28;20038;-68
2022/05/12 01:12:52;;;;;;;6.10;0.85;;;9.70;99.90;;;;;;5026747;28;20065;-68
2022/05/12 01:15:20;;;;;;;4.28;1.13;;;9.70;99.90;;;;;;5031122;28;20079;-68
2022/05/12 01:17:47;;;;;;;4.70;1.25;;;9.60;99.90;;;;;;5026122;28;20112;-68
2022/05/12 01:20:13;;;;;;;3.65;1.00;;;9.60;99.90;;;;;;5027508;28;20302;-68
2022/05/12 01:22:45;;;;;;;2.13;0.73;;;9.60;99.90;;;;;;5047646;28;20047;-68
2022/05/12 01:25:14;;;;;;;2.15;0.70;;;9.50;99.90;;;;;;5030783;28;20052;-68
2022/05/12 01:27:42;;;;;;;2.40;0.80;;;9.50;99.90;;;;;;5049636;28;20385;-68
2022/05/12 01:30:10;;;;;;;3.40;1.20;;;9.50;99.90;;;;;;5027516;28;20044;-68
2022/05/12 01:32:35;;;;;;;2.70;0.82;;;9.50;99.90;;;;;;5025363;28;20056;-68
2022/05/12 01:35:02;;;;;;;4.30;0.70;;;9.40;99.90;;;;;;5024362;28;20060;-67
2022/05/12 01:37:28;;;;;;;3.20;0.70;;;9.40;99.90;;;;;;5025471;28;20057;-67
2022/05/12 01:39:53;;;;;;;3.78;0.77;;;9.40;99.90;;;;;;5010561;28;20049;-67
2022/05/12 01:42:20;;;;;;;5.10;0.68;;;9.30;99.90;;;;;;5043149;28;20044;-68
2022/05/12 01:44:46;;;;;;;3.40;0.60;;;9.30;99.90;;;;;;5032547;28;20033;-68
2022/05/12 01:47:13;;;;;;;3.08;0.70;;;9.30;99.90;;;;;;5022716;28;20045;-68
2022/05/12 01:49:39;;;;;;;2.45;0.70;;;9.30;99.90;;;;;;5022454;28;20063;-68
2022/05/12 01:52:05;;;;;;;4.00;0.90;;;9.20;99.90;;;;;;5025064;28;20069;-68
2022/05/12 01:54:31;;;;;;;3.58;0.93;;;9.30;99.90;;;;;;5040552;28;20116;-68
2022/05/12 01:56:57;;;;;;;3.20;0.63;;;9.20;99.90;;;;;;5028181;28;20129;-68
2022/05/12 01:59:24;;;;;;;2.90;1.13;;;9.20;99.90;;;;;;5022654;28;20036;-68
2022/05/12 02:01:50;;;;;;;3.75;1.45;;;9.20;99.90;;;;;;5044213;28;20041;-68
2022/05/12 02:04:17;;;;;;;5.07;1.08;;;9.10;99.90;;;;;;5042411;28;20040;-68
2022/05/12 02:06:43;;;;;;;5.43;0.98;;;9.20;99.90;;;;;;5028894;28;20435;-68
2022/05/12 02:09:09;;;;;;;4.70;1.38;;;9.20;99.90;;;;;;5028162;28;20030;-68
2022/05/12 02:11:36;;;;;;;4.53;1.15;;;9.10;99.90;;;;;;5030656;28;20064;-66
2022/05/12 02:14:02;;;;;;;7.15;1.77;;;9.10;99.90;;;;;;5022597;28;20038;-67
2022/05/12 02:16:30;;;;;;;4.38;1.17;;;9.10;99.90;;;;;;5049243;28;20368;-67
2022/05/12 02:18:55;;;;;;;6.93;1.50;;;9.10;99.90;;;;;;5010925;28;20051;-67
2022/05/12 02:21:21;;;;;;;4.10;1.30;;;9.10;99.90;;;;;;5027865;28;20041;-67
2022/05/12 02:23:47;;;;;;;5.78;1.33;;;9.10;99.90;;;;;;5026723;28;20057;-67
2022/05/12 02:26:13;;;;;;;10.63;1.88;;;9.10;99.90;;;;;;5030695;28;20037;-67
2022/05/12 02:28:39;;;;;;;6.90;1.40;;;9.10;99.90;;;;;;5040729;28;20041;-67
2022/05/12 02:31:05;;;;;;;4.50;1.40;;;9.00;99.90;;;;;;5041917;28;20049;-68
2022/05/12 02:33:30;;;;;;;5.45;1.40;;;9.00;99.90;;;;;;5038089;28;20045;-68
2022/05/12 02:35:56;;;;;;;4.57;1.42;;;9.00;99.90;;;;;;5026909;28;20373;-68
2022/05/12 02:38:22;;;;;;;4.78;1.52;;;9.00;99.90;;;;;;5035421;28;20546;-68
2022/05/12 02:40:48;;;;;;;4.57;1.65;;;9.00;99.90;;;;;;5021607;28;20065;-68
2022/05/12 02:43:23;;;;;;;5.57;1.90;;;9.00;99.90;;;;;;5040938;28;20119;-68
2022/05/12 02:45:54;;;;;;;5.03;1.10;;;9.00;99.90;;;;;;5040486;28;20041;-67
2022/05/12 02:48:21;;;;;;;4.93;1.27;;;9.00;99.90;;;;;;5041324;28;20044;-67
2022/05/12 02:50:48;;;;;;;4.43;1.30;;;9.00;99.90;;;;;;5024120;28;20499;-67
2022/05/12 02:53:14;;;;;;;5.13;1.25;;;9.00;99.90;;;;;;5043222;28;20592;-67
2022/05/12 02:55:40;;;;;;;4.82;1.42;;;8.90;99.90;;;;;;5028672;28;20049;-67
2022/05/12 02:58:05;;;;;;;6.20;1.35;;;8.90;99.90;;;;;;5029982;28;20044;-68
2022/05/12 03:00:33;;;;;;;8.25;1.63;;;8.90;99.90;;;;;;5043008;28;20400;-67
2022/05/12 03:02:59;;;;;;;5.50;1.50;;;8.90;99.90;;;;;;5025514;28;20630;-67
2022/05/12 03:05:25;;;;;;;5.68;1.27;;;8.80;99.90;;;;;;5043048;28;20116;-67
2022/05/12 03:07:51;;;;;;;4.32;1.20;;;8.70;99.90;;;;;;5042520;28;20136;-67
2022/05/12 03:10:17;;;;;;;9.00;1.58;;;8.80;99.90;;;;;;5042459;28;20037;-67
2022/05/12 03:12:42;;;;;;;6.70;1.20;;;8.80;99.90;;;;;;5043222;28;20045;-67
2022/05/12 03:15:09;;;;;;;5.68;1.65;;;8.70;99.90;;;;;;5043261;28;20037;-67
2022/05/12 03:17:35;;;;;;;5.50;1.70;;;8.70;99.90;;;;;;5031146;28;20041;-67
2022/05/12 03:20:04;;;;;;;4.90;2.05;;;8.70;99.90;;;;;;5025179;28;20033;-67
2022/05/12 03:22:29;;;;;;;5.40;1.73;;;8.70;99.90;;;;;;5024733;28;20047;-67
2022/05/12 03:24:55;;;;;;;6.38;1.77;;;8.60;99.90;;;;;;5038005;28;20135;-67
2022/05/12 03:27:21;;;;;;;4.88;1.80;;;8.60;99.90;;;;;;5025521;28;20072;-67
2022/05/12 03:29:46;;;;;;;7.55;1.60;;;8.60;99.90;;;;;;5043299;28;20104;-68
2022/05/12 03:32:12;;;;;;;4.80;1.77;;;8.50;99.90;;;;;;5026915;28;20061;-68
2022/05/12 03:34:39;;;;;;;8.15;1.85;;;8.50;99.90;;;;;;5017536;28;20527;-68
2022/05/12 03:37:09;;;;;;;5.53;1.65;;;8.40;99.90;;;;;;5036819;28;20040;-68
2022/05/12 03:39:37;;;;;;;3.90;1.48;;;8.30;99.90;;;;;;5022663;28;20537;-68
2022/05/12 03:42:04;;;;;;;5.32;2.00;;;8.40;99.90;;;;;;5028264;28;20496;-68
2022/05/12 03:47:29;;;;;;;8.80;2.28;;;8.30;99.90;;;;;;5048078;28;20063;-68
2022/05/12 03:49:59;;;;;;;7.78;2.30;;;8.30;99.90;;;;;;5025456;28;20037;-68
2022/05/12 03:52:25;;;;;;;7.80;2.72;;;8.30;99.90;;;;;;5025718;28;20507;-68
2022/05/12 03:54:51;;;;;;;6.78;2.50;;;8.30;99.90;;;;;;5044373;28;20065;-67
2022/05/12 03:57:19;;;;;;;11.30;2.97;;;8.30;99.90;;;;;;5025060;28;20496;-68
2022/05/12 03:59:48;;;;;;;12.15;3.13;;;8.40;99.90;;;;;;5024392;28;20037;-68
2022/05/12 04:02:16;;;;;;;11.27;2.95;;;8.30;99.90;;;;;;5040527;28;20108;-68
2022/05/12 04:04:43;;;;;;;12.00;3.38;;;8.40;99.90;;;;;;5018874;28;20045;-68
2022/05/12 04:07:14;;;;;;;6.68;2.40;;;8.40;99.90;;;;;;5040888;28;20041;-68
2022/05/12 04:09:41;;;;;;;11.65;3.50;;;8.40;99.90;;;;;;5044560;28;20454;-68
2022/05/12 04:12:09;;;;;;;8.73;2.70;;;8.50;99.90;;;;;;5042537;28;20044;-68
2022/05/12 04:14:37;;;;;;;14.13;3.50;;;8.50;99.90;;;;;;5044411;28;20484;-67
2022/05/12 04:17:03;;;;;;;9.00;3.20;;;8.50;99.90;;;;;;5040042;28;20492;-68
2022/05/12 04:19:29;;;;;;;13.95;3.22;;;8.60;99.90;;;;;;5019982;28;20048;-68
2022/05/12 04:21:55;;;;;;;10.48;4.10;;;8.60;99.90;;;;;;5023578;28;20457;-68
2022/05/12 04:24:21;;;;;;;8.10;3.60;;;8.60;99.90;;;;;;5022503;28;20044;-68
2022/05/12 04:26:47;;;;;;;12.55;3.15;;;8.60;99.90;;;;;;5021092;28;20080;-68
2022/05/12 04:29:13;;;;;;;9.73;3.00;;;8.70;99.90;;;;;;5019727;28;20461;-68
2022/05/12 04:31:40;;;;;;;9.20;3.55;;;8.70;99.90;;;;;;5020983;28;20045;-68
2022/05/12 04:36:51;;;;;;;14.02;3.88;;;8.90;99.90;;;;;;5025603;28;20073;-68
2022/05/12 04:39:17;;;;;;;9.23;3.47;;;9.00;99.90;;;;;;5018682;28;20037;-68
2022/05/12 04:41:44;;;;;;;9.82;3.55;;;9.00;99.90;;;;;;5028342;28;20041;-68
2022/05/12 04:44:10;;;;;;;10.20;3.45;;;9.00;99.90;;;;;;5011058;28;20037;-68
2022/05/12 04:46:37;;;;;;;15.27;4.03;;;9.10;99.90;;;;;;5025099;28;20077;-68
2022/05/12 04:49:05;;;;;;;10.77;3.70;;;9.20;99.90;;;;;;5025641;28;20091;-68
2022/05/12 04:51:31;;;;;;;11.77;3.50;;;9.30;99.90;;;;;;5009724;28;20114;-68
2022/05/12 04:53:58;;;;;;;14.95;4.20;;;9.40;99.90;;;;;;5038830;28;20068;-68
2022/05/12 04:56:24;;;;;;;8.95;3.58;;;9.50;99.90;;;;;;5026084;28;20460;-68
2022/05/12 04:58:50;;;;;;;12.45;4.40;;;9.60;99.90;;;;;;5041048;28;20077;-68
2022/05/12 05:01:15;;;;;;;14.68;4.15;;;9.80;99.90;;;;;;5026454;28;20044;-68
2022/05/12 05:03:42;;;;;;;11.57;4.15;;;9.90;99.90;;;;;;5024571;28;20080;-68
2022/05/12 05:06:08;;;;;;;8.25;3.72;;;10.20;99.90;;;;;;5045122;28;20103;-68
2022/05/12 05:08:34;;;;;;;10.23;4.28;;;10.70;99.90;;;;;;5045155;28;20090;-68
2022/05/12 05:11:00;;;;;;;10.13;4.15;;;11.00;99.90;;;;;;5046932;28;20029;-68
2022/05/12 05:13:26;;;;;;;8.52;4.25;;;11.10;99.90;;;;;;5019199;28;20045;-68
2022/05/12 05:15:53;;;;;;;9.23;4.43;;;11.10;99.90;;;;;;5025420;28;20048;-68
2022/05/12 05:18:20;;;;;;;9.88;4.90;;;11.20;99.90;;;;;;5038346;28;20120;-68
2022/05/12 05:20:46;;;;;;;8.75;4.65;;;11.20;99.90;;;;;;5020673;28;20064;-69
2022/05/12 05:23:15;;;;;;;12.48;5.30;;;11.30;99.90;;;;;;5043741;28;20033;-68
2022/05/12 05:25:42;;;;;;;10.65;5.25;;;11.40;99.90;;;;;;5022833;28;20080;-68
2022/05/12 05:28:10;;;;;;;16.10;5.60;;;11.50;99.90;;;;;;5034758;28;20048;-68
2022/05/12 05:30:37;;;;;;;9.40;5.75;;;11.60;99.90;;;;;;5049747;28;20028;-68
2022/05/12 05:33:03;;;;;;;11.98;6.20;;;11.70;99.90;;;;;;5029233;28;20555;-68
2022/05/12 05:35:29;;;;;;;9.27;6.30;;;11.70;99.90;;;;;;5025951;28;20049;-68
2022/05/12 05:37:56;;;;;;;12.68;7.00;;;11.80;99.90;;;;;;5047658;28;20052;-68
2022/05/12 05:40:25;;;;;;;10.98;6.13;;;11.90;99.90;;;;;;5024815;28;20064;-67
2022/05/12 05:42:52;;;;;;;11.85;7.28;;;12.00;99.90;;;;;;5047670;28;20041;-67
2022/05/12 05:45:18;;;;;;;14.48;6.15;;;12.00;99.90;;;;;;5025351;28;20052;-68
2022/05/12 05:47:46;;;;;;;10.52;6.30;;;12.10;99.90;;;;;;5029695;28;20053;-68
2022/05/12 05:50:16;;;;;;;12.93;6.75;;;12.10;99.90;;;;;;5046648;28;20045;-68
2022/05/12 05:55:26;;;;;;;12.95;7.15;;;12.30;99.90;;;;;;5029810;28;20107;-68
2022/05/12 05:57:53;;;;;;;11.90;6.93;;;12.40;99.90;;;;;;5029928;28;20037;-67
2022/05/12 06:00:19;;;;;;;12.10;6.80;;;12.50;99.90;;;;;;5047149;28;20037;-68
2022/05/12 06:02:46;;;;;;;12.65;6.20;;;12.60;99.90;;;;;;5043743;28;20048;-68
2022/05/12 06:05:11;;;;;;;12.95;6.03;;;12.80;99.90;;;;;;5030763;28;20052;-67
2022/05/12 06:07:39;;;;;;;10.40;5.65;;;13.00;99.90;;;;;;5045508;28;20051;-68
2022/05/12 06:10:06;;;;;;;14.43;6.15;;;13.10;99.90;;;;;;5012786;28;20076;-67
2022/05/12 06:12:33;;;;;;;9.82;5.78;;;13.20;99.90;;;;;;5041520;28;20127;-67
2022/05/12 06:14:59;;;;;;;11.52;6.00;;;13.30;99.90;;;;;;5043746;28;20037;-68
2022/05/12 06:17:26;;;;;;;10.98;5.80;;;13.40;99.90;;;;;;5022303;28;20052;-68
2022/05/12 06:19:53;;;;;;;10.65;5.70;;;13.50;99.90;;;;;;5023094;28;20095;-68
2022/05/12 06:22:20;;;;;;;9.73;5.43;;;13.60;99.90;;;;;;5046672;28;20432;-68
2022/05/12 06:24:47;;;;;;;16.15;5.82;;;13.70;99.90;;;;;;5022194;28;20110;-68
2022/05/12 06:27:19;;;;;;;10.50;5.03;;;13.80;99.90;;;;;;5045089;28;20477;-68
2022/05/12 06:29:45;;;;;;;11.23;5.35;;;13.90;99.90;;;;;;5043491;28;20033;-68
2022/05/12 06:32:11;;;;;;;11.68;4.93;;;14.00;99.90;;;;;;5025429;28;20504;-68
2022/05/12 06:34:37;;;;;;;9.98;4.97;;;14.20;99.90;;;;;;5042302;28;20115;-68
2022/05/12 06:37:04;;;;;;;10.23;4.28;;;14.30;99.90;;;;;;5026319;28;20401;-68
2022/05/12 06:39:31;;;;;;;8.75;4.38;;;14.40;99.90;;;;;;5044881;28;20580;-68
2022/05/12 06:41:57;;;;;;;8.65;4.30;;;14.50;99.90;;;;;;5044717;28;20345;-68
2022/05/12 06:44:23;;;;;;;8.45;4.07;;;14.60;99.90;;;;;;5027520;28;20044;-68
2022/05/12 06:46:49;;;;;;;10.48;3.95;;;14.70;99.90;;;;;;5040645;28;20033;-68
2022/05/12 06:49:17;;;;;;;8.77;3.50;;;14.80;99.90;;;;;;5044238;28;20039;-68
2022/05/12 06:51:44;;;;;;;12.60;4.53;;;14.90;99.90;;;;;;5028657;28;20045;-68
2022/05/12 06:54:10;;;;;;;10.15;3.50;;;15.00;99.90;;;;;;5040687;28;20096;-68
2022/05/12 06:56:36;;;;;;;10.27;3.35;;;15.10;99.90;;;;;;5026003;28;20049;-68
2022/05/12 06:59:02;;;;;;;10.10;3.35;;;15.20;99.90;;;;;;5017673;28;20157;-68
2022/05/12 07:01:28;;;;;;;7.97;2.78;;;15.30;99.90;;;;;;5027526;28;20106;-68
2022/05/12 07:03:57;;;;;;;8.75;2.83;;;15.40;99.90;;;;;;5033493;28;20517;-68
2022/05/12 07:06:23;;;;;;;7.47;2.63;;;15.50;99.90;;;;;;5014438;28;20056;-68
2022/05/12 07:08:48;;;;;;;10.60;3.22;;;15.60;99.90;;;;;;5022334;28;20052;-68
2022/05/12 07:11:14;;;;;;;6.45;2.72;;;16.00;99.90;;;;;;5046018;28;20642;-68
2022/05/12 07:13:40;;;;;;;7.88;2.30;;;16.30;99.90;;;;;;5025027;28;20457;-68
2022/05/12 07:16:07;;;;;;;7.65;2.15;;;16.40;99.90;;;;;;5027268;28;20049;-68
2022/05/12 07:18:34;;;;;;;9.75;2.20;;;16.80;99.90;;;;;;5042193;28;20060;-68
2022/05/12 07:26:35;;;;;;;7.18;1.50;;;17.50;99.90;;;;;;5047590;28;20083;-68
2022/05/12 07:29:07;;;;;;;9.05;1.95;;;17.60;99.90;;;;;;5026150;28;20511;-68
2022/05/12 07:31:33;;;;;;;7.15;2.20;;;17.90;99.90;;;;;;5022557;28;20055;-68
2022/05/12 07:34:00;;;;;;;7.40;1.63;;;18.30;99.90;;;;;;5023474;28;20033;-68
2022/05/12 07:36:30;;;;;;;6.97;1.75;;;18.70;99.90;;;;;;5042153;28;20057;-68
2022/05/12 07:38:56;;;;;;;6.85;1.58;;;19.10;99.40;;;;;;5044205;28;20444;-68
2022/05/12 07:41:23;;;;;;;5.72;1.33;;;19.40;98.60;;;;;;5027156;28;20029;-68
2022/05/12 07:43:51;;;;;;;10.90;2.28;;;19.70;96.40;;;;;;5043771;28;20053;-68
2022/05/12 07:46:20;;;;;;;9.75;1.92;;;19.40;94.50;;;;;;5038897;28;20460;-68
2022/05/12 07:48:46;;;;;;;6.70;2.03;;;19.10;95.80;;;;;;5044178;28;20481;-68
2022/05/12 07:51:12;;;;;;;6.80;1.58;;;18.80;95.30;;;;;;5046278;28;20043;-68
2022/05/12 07:53:38;;;;;;;5.50;1.30;;;18.70;94.80;;;;;;5021414;28;20461;-68
2022/05/12 07:56:05;;;;;;;8.23;1.15;;;18.60;94.90;;;;;;5017948;28;20084;-69
2022/05/12 07:58:32;;;;;;;8.80;1.33;;;18.40;94.90;;;;;;5038893;28;20475;-69
2022/05/12 08:00:57;;;;;;;5.55;1.42;;;18.30;95.40;;;;;;5050675;28;20053;-69
2022/05/12 08:03:25;;;;;;;8.38;1.63;;;18.10;95.50;;;;;;4998713;28;20049;-67
2022/05/12 08:05:52;;;;;;;6.68;1.25;;;18.00;95.10;;;;;;5036841;28;20380;-67
2022/05/12 08:08:18;;;;;;;7.30;1.20;;;18.10;95.70;;;;;;5041424;28;20492;-67
2022/05/12 08:10:44;;;;;;;6.18;1.38;;;18.30;95.70;;;;;;5017295;28;20056;-67
2022/05/12 08:13:16;;;;;;;5.97;0.98;;;18.80;95.90;;;;;;5040643;28;20056;-67
2022/05/12 08:15:46;;;;;;;5.75;1.27;;;19.40;94.80;;;;;;5040168;28;20583;-67
2022/05/12 08:18:15;;;;;;;7.60;1.42;;;20.10;93.70;;;;;;5041142;28;20068;-67
2022/05/12 08:20:44;;;;;;;5.78;1.00;;;20.10;91.20;;;;;;5043861;28;20037;-67
2022/05/12 08:23:11;;;;;;;6.22;1.40;;;19.80;89.60;;;;;;5045533;28;20469;-67
2022/05/12 08:25:38;;;;;;;5.07;1.35;;;19.60;87.20;;;;;;5042708;28;20109;-67
2022/05/12 08:28:04;;;;;;;4.50;1.20;;;19.40;90.10;;;;;;5042442;28;20037;-67
2022/05/12 08:30:30;;;;;;;4.60;0.82;;;19.30;89.30;;;;;;5041698;28;20045;-67
2022/05/12 08:32:57;;;;;;;5.60;0.77;;;19.20;89.10;;;;;;5040652;28;20033;-67
2022/05/12 08:35:23;;;;;;;5.40;1.20;;;19.40;88.40;;;;;;5027968;28;20064;-67
2022/05/12 08:37:49;;;;;;;4.93;1.10;;;20.10;90.20;;;;;;5025828;28;20404;-67
2022/05/12 08:40:22;;;;;;;5.47;1.27;;;20.50;88.20;;;;;;5044692;28;20043;-67
2022/05/12 08:42:48;;;;;;;9.43;1.53;;;20.80;88.50;;;;;;5038734;28;20042;-67
2022/05/12 08:45:18;;;;;;;4.32;0.98;;;20.80;84.50;;;;;;5043863;28;20044;-67
2022/05/12 08:47:47;;;;;;;6.80;1.33;;;20.40;81.20;;;;;;5047947;28;20044;-67
2022/05/12 08:50:26;;;;;;;6.22;1.23;;;19.90;82.80;;;;;;5035445;28;20045;-67
2022/05/12 08:52:57;;;;;;;5.63;1.00;;;20.40;84.70;;;;;;5036597;28;20075;-67
2022/05/12 08:55:32;;;;;;;5.20;1.23;;;20.80;85.50;;;;;;5035989;28;20033;-67
2022/05/12 08:58:03;;;;;;;6.88;1.33;;;20.90;78.50;;;;;;5036766;28;20041;-67
2022/05/12 09:00:55;;;;;;;5.28;1.17;;;20.80;78.70;;;;;;5044554;28;20041;-67
2022/05/12 09:03:59;;;;;;;7.28;1.10;;;20.50;77.10;;;;;;5039133;28;20036;-67
2022/05/12 09:07:02;;;;;;;7.10;1.23;;;20.00;77.50;;;;;;5042130;28;20163;-67
2022/05/12 09:09:41;;;;;;;6.80;1.25;;;20.20;75.50;;;;;;5014486;28;20156;-67
2022/05/12 09:12:25;;;;;;;4.75;0.98;;;20.10;74.70;;;;;;5046806;28;20972;-67
2022/05/12 09:15:16;;;;;;;4.53;1.13;;;20.00;74.50;;;;;;5045585;28;20036;-67
2022/05/12 09:17:54;;;;;;;4.25;1.00;;;19.70;72.30;;;;;;5009644;28;20049;-67
2022/05/12 09:20:21;;;;;;;4.80;1.00;;;19.60;75.10;;;;;;5049351;28;20037;-66
2022/05/12 09:22:47;;;;;;;4.32;0.80;;;19.20;75.20;;;;;;5047868;28;20036;-67
2022/05/12 09:25:32;;;;;;;5.53;1.45;;;18.80;74.90;;;;;;5030030;28;20045;-67
2022/05/12 09:28:00;;;;;;;4.18;1.15;;;19.00;76.20;;;;;;5043992;28;20705;-67
2022/05/12 09:30:36;;;;;;;5.40;1.25;;;19.30;78.00;;;;;;5051074;28;20054;-67
2022/05/12 09:33:03;;;;;;;6.07;1.10;;;19.20;74.70;;;;;;5048511;28;20081;-67
2022/05/12 09:35:30;;;;;;;4.40;0.93;;;19.00;76.30;;;;;;5046460;28;20065;-67
2022/05/12 09:37:56;;;;;;;10.00;1.48;;;18.80;76.90;;;;;;5045957;28;20063;-67
2022/05/12 09:40:32;;;;;;;5.38;1.10;;;18.90;78.00;;;;;;5044703;28;20068;-67
2022/05/12 09:43:02;;;;;;;6.82;1.30;;;18.80;75.90;;;;;;5048910;28;20480;-67
2022/05/12 09:45:30;;;;;;;6.43;1.15;;;18.70;77.10;;;;;;5044999;28;20056;-66
2022/05/12 09:48:50;;;;;;;4.72;0.95;;;18.70;76.10;;;;;;5041528;28;20147;-67
2022/05/12 09:51:21;;;;;;;5.68;0.90;;;18.90;74.60;;;;;;5037944;28;20046;-67
2022/05/12 09:53:48;;;;;;;4.38;0.90;;;18.90;74.60;;;;;;5039222;28;20053;-67
2022/05/12 09:56:28;;;;;;;5.85;0.85;;;18.80;73.10;;;;;;5037958;28;20413;-66
2022/05/12 09:59:10;;;;;;;4.22;1.42;;;18.60;72.50;;;;;;5026796;28;20051;-66
2022/05/12 10:01:55;;;;;;;4.63;0.88;;;18.30;73.40;;;;;;5043831;28;20049;-66
2022/05/12 10:10:16;;;;;;;4.93;0.68;;;17.50;75.30;;;;;;5044670;28;19979;-66
2022/05/12 10:12:49;;;;;;;7.13;0.75;;;17.70;76.80;;;;;;5045482;28;20037;-66
2022/05/12 10:15:29;;;;;;;4.95;0.77;;;18.20;76.20;;;;;;5043561;28;20481;-66
2022/05/12 10:18:38;;;;;;;3.70;0.80;;;18.90;74.00;;;;;;5026750;28;20394;-66
2022/05/12 10:21:15;;;;;;;3.10;0.75;;;19.70;70.60;;;;;;5025251;28;20111;-67
2022/05/12 10:23:53;;;;;;;5.38;1.17;;;20.30;69.10;;;;;;5041506;28;20103;-67
2022/05/12 10:26:25;;;;;;;3.70;0.93;;;20.20;68.00;;;;;;5043763;28;20418;-66
2022/05/12 10:28:53;;;;;;;5.18;0.93;;;20.00;67.40;;;;;;5039609;28;20037;-67
2022/05/12 10:31:26;;;;;;;4.57;0.90;;;20.20;65.30;;;;;;5039911;28;20072;-67
2022/05/12 10:34:01;;;;;;;4.13;0.85;;;20.40;63.70;;;;;;5036911;28;20554;-67
2022/05/12 10:36:47;;;;;;;4.50;0.98;;;20.40;65.80;;;;;;5034851;28;20041;-67
2022/05/12 10:39:24;;;;;;;5.80;1.20;;;20.80;65.70;;;;;;5043289;28;20473;-67
2022/05/12 10:42:23;;;;;;;4.13;1.00;;;21.30;64.70;;;;;;5042956;28;20132;-67
2022/05/12 10:45:24;;;;;;;3.88;0.65;;;21.20;62.70;;;;;;5041167;28;20032;-66
2022/05/12 10:48:32;;;;;;;4.18;0.93;;;20.80;61.00;;;;;;5031204;28;20497;-66
2022/05/12 10:51:08;;;;;;;4.18;1.08;;;20.10;61.40;;;;;;5019487;28;20052;-66
2022/05/12 10:54:05;;;;;;;2.90;0.90;;;19.60;63.40;;;;;;5025810;28;20545;-66
2022/05/12 10:57:18;;;;;;;3.88;0.90;;;19.70;64.70;;;;;;5038388;28;20120;-66
2022/05/12 10:59:49;;;;;;;3.85;1.20;;;20.10;66.30;;;;;;4924603;29;20420;-67
2022/05/12 11:02:36;;;;;;;3.83;1.40;;;20.30;62.90;;;;;;5032560;28;20076;-67
2022/05/12 11:05:21;;;;;;;7.03;1.23;;;20.30;64.50;;;;;;5007565;28;20569;-67
2022/05/12 11:07:58;;;;;;;3.50;0.60;;;20.90;63.30;;;;;;5042652;28;20041;-67
2022/05/12 11:10:44;;;;;;;4.07;0.77;;;21.30;62.50;;;;;;5042667;28;20112;-67
2022/05/12 11:13:22;;;;;;;4.88;1.17;;;21.50;60.70;;;;;;5041904;28;20044;-67
2022/05/12 11:16:06;;;;;;;3.45;0.82;;;21.90;59.40;;;;;;5037826;28;20477;-67
2022/05/12 11:19:14;;;;;;;3.38;0.70;;;22.10;57.10;;;;;;5037962;28;20342;-67
2022/05/12 11:22:03;;;;;;;4.50;1.08;;;21.80;56.70;;;;;;5039278;28;20045;-67
2022/05/12 11:24:35;;;;;;;4.72;1.00;;;21.20;57.10;;;;;;5041176;28;20052;-67
2022/05/12 11:27:30;;;;;;;3.90;0.70;;;20.80;58.40;;;;;;5038518;28;20045;-67
2022/05/12 11:30:25;;;;;;;4.93;0.93;;;20.70;58.50;;;;;;5040600;28;20056;-67
2022/05/12 11:33:18;;;;;;;4.93;0.80;;;21.10;59.50;;;;;;5035548;28;20032;-67
2022/05/12 11:35:49;;;;;;;3.72;0.77;;;21.50;56.90;;;;;;5037178;28;20389;-68
2022/05/12 11:38:37;;;;;;;3.97;0.70;;;21.50;56.30;;;;;;5033364;28;20440;-67
2022/05/12 11:41:04;;;;;;;5.38;0.80;;;21.20;56.00;;;;;;5042540;28;20427;-67
2022/05/12 11:46:50;;;;;;;5.13;0.90;;;21.40;55.80;;;;;;5039155;28;20179;-67
2022/05/12 11:49:36;;;;;;;4.15;0.70;;;21.80;57.00;;;;;;5028870;28;20449;-70
2022/05/12 11:52:26;;;;;;;3.22;0.60;;;21.70;55.40;;;;;;5022846;28;20393;-71
2022/05/12 11:54:57;;;;;;;4.60;0.82;;;21.30;54.60;;;;;;5026534;28;20033;-70
2022/05/12 11:57:45;;;;;;;3.88;0.68;;;20.90;56.00;;;;;;5044171;28;20068;-70
2022/05/12 12:00:34;;;;;;;4.35;1.00;;;20.60;57.30;;;;;;5027016;28;20111;-70
2022/05/12 12:03:19;;;;;;;3.85;0.70;;;20.50;57.80;;;;;;5028010;28;20053;-70
2022/05/12 12:05:48;;;;;;;2.95;0.60;;;20.80;56.50;;;;;;5042305;28;20045;-70
2022/05/12 12:08:32;;;;;;;1.92;0.38;;;21.20;56.60;;;;;;5039182;28;20470;-69
2022/05/12 12:11:13;;;;;;;3.28;0.55;;;21.30;53.40;;;;;;5028705;28;20112;-69
2022/05/12 12:13:45;;;;;;;3.70;0.80;;;21.00;54.70;;;;;;5010539;28;20060;-69
2022/05/12 12:16:18;;;;;;;3.35;0.40;;;20.90;56.10;;;;;;5024635;28;20040;-69
2022/05/12 12:18:57;;;;;;;3.60;0.70;;;20.90;55.50;;;;;;5004026;28;20056;-70
2022/05/12 12:21:46;;;;;;;3.85;0.52;;;20.70;55.30;;;;;;5008167;28;20091;-70
2022/05/12 12:24:35;;;;;;;3.83;0.77;;;20.80;57.30;;;;;;5026403;28;20050;-70
2022/05/12 12:27:30;;;;;;;4.25;0.77;;;20.90;57.00;;;;;;5035453;28;20048;-70
2022/05/12 12:30:26;;;;;;;5.05;0.95;;;20.80;56.50;;;;;;5013448;28;20045;-67
2022/05/12 12:33:14;;;;;;;3.03;0.85;;;21.00;57.10;;;;;;5032794;28;20457;-67
2022/05/12 12:36:15;;;;;;;4.78;0.88;;;21.40;55.10;;;;;;5041426;28;20552;-68
2022/05/12 12:38:46;;;;;;;6.38;0.80;;;22.10;54.90;;;;;;5050853;28;20071;-68
2022/05/12 12:41:29;;;;;;;4.32;0.80;;;22.60;53.00;;;;;;5048470;28;20033;-68
2022/05/12 12:44:09;;;;;;;3.63;0.70;;;22.60;52.20;;;;;;5018783;28;20052;-68
2022/05/12 12:47:14;;;;;;;3.13;0.77;;;22.10;52.60;;;;;;5047882;28;20505;-67
2022/05/12 12:49:46;;;;;;;3.42;0.85;;;21.80;53.80;;;;;;5046298;28;20115;-67
2022/05/12 12:52:14;;;;;;;2.78;0.60;;;21.70;53.10;;;;;;5048732;28;20076;-67
2022/05/12 12:57:28;;;;;;;3.35;0.47;;;22.30;53.30;;;;;;5049900;28;20060;-67
2022/05/12 12:59:59;;;;;;;2.92;0.88;;;22.60;51.40;;;;;;5050865;28;20074;-67
2022/05/12 13:02:40;;;;;;;5.05;0.80;;;22.60;51.90;;;;;;5051317;28;20093;-67
2022/05/12 13:05:10;;;;;;;3.53;0.70;;;22.40;51.50;;;;;;5049616;28;20040;-67
2022/05/12 13:07:38;;;;;;;3.95;0.82;;;21.80;50.80;;;;;;5052722;28;20116;-68
2022/05/12 13:10:14;;;;;;;26.05;1.48;;;21.40;51.70;;;;;;5050529;28;20105;-67
2022/05/12 13:12:39;;;;;;;3.72;0.60;;;21.10;53.30;;;;;;5035304;28;20049;-65
2022/05/12 13:15:17;;;;;;;3.85;0.90;;;21.10;53.40;;;;;;5048579;28;20398;-66
2022/05/12 13:17:49;;;;;;;3.42;0.50;;;20.90;51.40;;;;;;5051658;28;20072;-66
2022/05/12 13:20:21;;;;;;;3.47;0.60;;;20.60;51.90;;;;;;5047035;28;20054;-68
2022/05/12 13:23:10;;;;;;;4.05;0.60;;;20.30;51.40;;;;;;5045794;28;20493;-68
2022/05/12 13:25:39;;;;;;;4.97;0.68;;;19.90;52.00;;;;;;5039946;28;20468;-68
2022/05/12 13:28:06;;;;;;;3.10;0.40;;;19.80;52.70;;;;;;5046696;28;20033;-68
2022/05/12 13:30:45;;;;;;;5.88;0.68;;;19.80;52.50;;;;;;5047342;28;20068;-68
2022/05/12 13:33:25;;;;;;;5.22;0.50;;;20.00;50.20;;;;;;5050693;28;20099;-68
2022/05/12 13:36:03;;;;;;;3.95;0.68;;;20.10;51.00;;;;;;5030255;28;20053;-69